Terminal Aerodrome Forecast
Issued by NWS

Home | Current Version | Previous Version | Text Only | Print | Product List | Glossary On
Versions: 1 2 3 4 5 6 7 8 9 10 11 12 13 14 15 16 17
000
FTUS42 KTAE 021136 AAA
TAFDHN
TAF AMD
KDHN 021136Z 0212/0312 12003KT 1/4SM FG VV001
     FM021330 27005KT P6SM SCT015 SCT150
     FM021700 24006KT P6SM VCTS SCT025CB BKN050
     FM030000 VRB03KT P6SM SCT250=

USA.gov is the U.S. government's official web portal to all federal, state and local government web resources and services.